Terminal Aerodrome Forecast
Issued by NWS

Home | Current Version | Previous Version | Text Only | Print | Product List | Glossary On
Versions: 1 2 3 4 5 6 7 8 9 10 11 12 13 14 15 16 17 18 19 20 21 22 23 24 25 26 27 28 29 30 31 32 33 34 35 36 37 38 39 40 41 42 43 44 45 46 47 48 49 50
934
FTUS43 KDDC 262322
TAFHYS
TAF
KHYS 262322Z 2700/2724 14014G24KT P6SM VCTS BKN050CB
     FM270400 13011G21KT 3SM BR SCT003
     FM270500 13010G20KT 3SM BR BKN010
     FM270900 16010KT 3SM BR BKN025
     FM271500 17011KT P6SM VCSH BKN035=

USA.gov is the U.S. government's official web portal to all federal, state and local government web resources and services.